createdAt,value
2022-09-22T00:06:12.044Z,100.00
2022-09-22T00:13:47.711Z,100.00
2022-09-22T00:21:24.624Z,100.00
2022-09-22T00:28:58.648Z,100.00
2022-09-22T00:36:33.870Z,100.00
2022-09-22T00:44:39.615Z,100.00
2022-09-22T00:52:20.461Z,100.00
2022-09-22T00:59:55.475Z,100.00
2022-09-22T01:07:31.910Z,100.00
2022-09-22T01:15:25.310Z,100.00
2022-09-22T01:23:31.861Z,100.00
2022-09-22T01:31:14.136Z,100.00
2022-09-22T01:38:59.538Z,100.00
2022-09-22T01:46:39.074Z,100.00
2022-09-22T01:54:16.438Z,100.00
2022-09-22T02:01:57.234Z,100.00
2022-09-22T02:09:34.816Z,100.00
2022-09-22T02:17:10.104Z,100.00
2022-09-22T02:24:46.127Z,100.00
2022-09-22T02:32:22.382Z,100.00
2022-09-22T02:40:06.986Z,100.00
2022-09-22T02:47:47.159Z,100.00
2022-09-22T02:55:21.184Z,100.00
2022-09-22T03:02:56.429Z,100.00
2022-09-22T03:10:30.014Z,100.00
2022-09-22T03:18:05.196Z,100.00
2022-09-22T03:25:38.912Z,100.00
2022-09-22T03:33:14.048Z,100.00
2022-09-22T03:40:51.894Z,100.00
2022-09-22T03:48:28.780Z,100.00
2022-09-22T03:56:06.689Z,100.00
2022-09-22T04:03:41.919Z,100.00
2022-09-22T04:11:15.513Z,100.00
2022-09-22T04:18:50.506Z,100.00
2022-09-22T04:26:24.650Z,100.00
2022-09-22T04:34:03.084Z,100.00
2022-09-22T04:41:39.138Z,100.00
2022-09-22T04:49:14.852Z,100.00
2022-09-22T04:56:48.537Z,100.00
2022-09-22T05:04:23.631Z,100.00
2022-09-22T05:12:01.312Z,100.00
2022-09-22T05:19:36.628Z,100.00
2022-09-22T05:27:10.291Z,100.00
2022-09-22T05:34:45.481Z,100.00
2022-09-22T05:42:19.128Z,100.00
2022-09-22T05:49:54.557Z,100.00
2022-09-22T05:57:28.324Z,100.00
2022-09-22T06:05:03.598Z,100.00
2022-09-22T06:12:37.168Z,100.00
2022-09-22T06:20:12.702Z,100.00
2022-09-22T06:27:47.238Z,100.00
2022-09-22T06:35:22.665Z,100.00
2022-09-22T06:42:59.937Z,100.00
2022-09-22T06:50:34.990Z,100.00
2022-09-22T06:58:09.539Z,100.00
2022-09-22T07:05:54.338Z,100.00
2022-09-22T07:13:29.820Z,100.00
2022-09-22T07:21:07.128Z,100.00
2022-09-22T07:28:41.587Z,100.00
2022-09-22T07:36:19.704Z,100.00
2022-09-22T07:43:56.126Z,100.00
2022-09-22T07:51:34.075Z,100.00
2022-09-22T07:59:11.097Z,100.00
2022-09-22T08:06:48.671Z,100.00
2022-09-22T08:14:24.093Z,100.00
2022-09-22T08:21:59.470Z,100.00
2022-09-22T08:29:33.124Z,99.84
2022-09-22T08:37:09.436Z,81.12
2022-09-22T08:44:52.939Z,79.79
2022-09-22T08:52:35.105Z,76.70
2022-09-22T09:00:14.632Z,75.88
2022-09-22T09:08:00.231Z,77.34
2022-09-22T09:15:52.873Z,74.92
2022-09-22T09:31:34.322Z,74.23
2022-09-22T09:39:15.587Z,73.96
2022-09-22T09:46:56.024Z,73.04
2022-09-22T09:54:31.093Z,62.46
2022-09-22T10:02:04.991Z,65.49
2022-09-22T10:09:41.024Z,60.65
2022-09-22T10:17:21.843Z,61.07
2022-09-22T10:25:00.087Z,60.42
2022-09-22T10:32:33.742Z,62.30
2022-09-22T10:40:18.218Z,61.20
2022-09-22T10:47:57.760Z,60.82
2022-09-22T10:55:36.786Z,60.61
2022-09-22T11:03:33.432Z,62.36
2022-09-22T11:11:38.801Z,60.62
2022-09-22T11:19:48.884Z,58.61
2022-09-22T11:27:36.467Z,54.31
2022-09-22T11:35:35.099Z,55.11
2022-09-22T11:43:25.217Z,57.07
2022-09-22T11:51:30.724Z,58.82
2022-09-22T11:59:30.967Z,60.25
2022-09-22T12:07:10.355Z,57.16
2022-09-22T12:14:46.256Z,54.45
2022-09-22T12:22:26.408Z,54.64
2022-09-22T12:30:03.454Z,57.53
2022-09-22T12:37:40.180Z,55.34
2022-09-22T12:45:22.597Z,54.98
2022-09-22T12:53:04.018Z,58.60
2022-09-22T13:00:40.919Z,60.34
2022-09-22T13:08:22.719Z,57.74
2022-09-22T13:16:01.627Z,57.61
2022-09-22T13:23:35.435Z,62.19
2022-09-22T13:31:15.261Z,59.83
2022-09-22T13:38:55.053Z,57.95
2022-09-22T13:46:37.735Z,55.90
2022-09-22T13:54:20.535Z,55.21
2022-09-22T14:01:55.759Z,52.61
2022-09-22T14:09:30.432Z,53.08
2022-09-22T14:17:09.727Z,55.62
2022-09-22T14:24:47.459Z,56.73
2022-09-22T14:32:30.148Z,52.97
2022-09-22T14:40:14.273Z,51.58
2022-09-22T14:48:20.696Z,52.21
2022-09-22T14:56:00.303Z,52.78
2022-09-22T15:03:35.731Z,54.09
2022-09-22T15:11:10.444Z,54.33
2022-09-22T15:18:47.924Z,56.00
2022-09-22T15:26:25.427Z,55.89
2022-09-22T15:34:03.172Z,56.17
2022-09-22T15:41:37.511Z,54.94
2022-09-22T15:49:16.817Z,54.46
2022-09-22T15:56:52.540Z,52.85
2022-09-22T16:04:34.342Z,54.23
2022-09-22T16:12:11.155Z,57.09
2022-09-22T16:19:46.300Z,60.23
2022-09-22T16:27:20.095Z,62.14
2022-09-22T16:34:55.193Z,65.45
2022-09-22T16:42:28.924Z,67.39
2022-09-22T16:50:04.118Z,67.57
2022-09-22T16:57:37.940Z,69.74
2022-09-22T17:05:13.078Z,70.70
2022-09-22T17:12:46.654Z,73.03
2022-09-22T17:20:22.001Z,74.91
2022-09-22T17:27:56.342Z,78.86
2022-09-22T17:35:31.484Z,80.90
2022-09-22T17:43:05.702Z,83.29
2022-09-22T17:50:58.449Z,87.01
2022-09-22T17:58:32.106Z,89.54
2022-09-22T18:06:14.573Z,92.44
2022-09-22T18:13:50.627Z,94.73
2022-09-22T18:21:27.021Z,97.26
2022-09-22T18:29:00.890Z,99.20
2022-09-22T18:36:36.862Z,100.00
2022-09-22T18:44:13.265Z,100.00
2022-09-22T18:51:50.577Z,100.00
2022-09-22T18:59:26.643Z,100.00
2022-09-22T19:07:19.328Z,100.00
2022-09-22T19:14:57.279Z,100.00
2022-09-22T19:22:32.398Z,100.00
2022-09-22T19:30:07.089Z,100.00
2022-09-22T19:37:42.493Z,100.00
2022-09-22T19:45:16.468Z,100.00
2022-09-22T19:52:51.892Z,100.00
2022-09-22T20:00:26.838Z,100.00
2022-09-22T20:08:03.684Z,100.00
2022-09-22T20:15:38.342Z,100.00
2022-09-22T20:23:15.899Z,100.00
2022-09-22T20:30:50.473Z,100.00
2022-09-22T20:38:25.821Z,100.00
2022-09-22T20:46:01.994Z,100.00
2022-09-22T20:53:38.138Z,100.00
2022-09-22T21:01:13.529Z,100.00
2022-09-22T21:09:06.527Z,100.00
2022-09-22T21:16:40.568Z,100.00
2022-09-22T21:24:17.281Z,100.00
2022-09-22T21:31:50.986Z,100.00
2022-09-22T21:39:26.119Z,100.00
2022-09-22T21:46:59.971Z,100.00
2022-09-22T21:54:34.984Z,100.00
2022-09-22T22:02:08.673Z,100.00
2022-09-22T22:09:43.947Z,100.00
2022-09-22T22:17:17.638Z,100.00
2022-09-22T22:24:52.858Z,100.00
2022-09-22T22:32:26.494Z,100.00
2022-09-22T22:40:02.000Z,100.00
2022-09-22T22:47:35.686Z,100.00
2022-09-22T22:55:11.233Z,100.00
2022-09-22T23:02:44.841Z,100.00
2022-09-22T23:10:20.185Z,100.00
2022-09-22T23:17:53.946Z,100.00
2022-09-22T23:25:29.119Z,100.00
2022-09-22T23:33:02.762Z,100.00
2022-09-22T23:40:38.487Z,100.00
2022-09-22T23:48:12.318Z,100.00
2022-09-22T23:55:47.582Z,100.00
